Time;durP1;ratioP1;P1;durP2;ratioP2;P2;SDS_P1;SDS_P2;PMS_P1;PMS_P2;Temp;Humidity;BMP_temperature;BMP_pressure;BME280_temperature;BME280_humidity;BME280_pressure;Samples;Min_cycle;Max_cycle;Signal;HPM_P1;HPM_P2
2021/04/19 00:03:56;;;;;;;94.90;51.28;;;;;;;3.95;83.11;99204.97;4119573;85;21169;-86
2021/04/19 00:09:58;;;;;;;85.17;45.88;;;;;;;3.93;83.55;99194.47;4163804;85;21176;-87
2021/04/19 00:15:59;;;;;;;99.83;50.52;;;;;;;3.92;83.23;99190.18;4141124;85;21152;-87
2021/04/19 00:22:01;;;;;;;105.15;51.25;;;;;;;3.73;83.28;99180.89;4167369;85;21164;-86
2021/04/19 00:28:03;;;;;;;92.30;49.55;;;;;;;3.64;83.26;99178.75;4159469;85;21163;-87
2021/04/19 00:34:04;;;;;;;98.30;50.45;;;;;;;3.48;83.16;99175.79;4228613;83;22272;-86
2021/04/19 00:40:15;;;;;;;103.70;51.92;;;;;;;3.54;83.78;99165.59;4249890;83;21166;-87
2021/04/19 00:46:17;;;;;;;101.47;47.53;;;;;;;3.52;83.69;99167.83;4259117;82;21165;-86
2021/04/19 00:52:19;;;;;;;117.45;51.50;;;;;;;3.36;83.18;99175.67;4245737;82;21155;-89
2021/04/19 00:58:32;;;;;;;123.02;56.15;;;;;;;3.20;83.92;99171.34;4249839;82;21715;-87
2021/04/19 01:04:33;;;;;;;113.83;54.93;;;;;;;3.27;84.05;99176.81;4241022;82;21285;-88
2021/04/19 01:10:37;;;;;;;97.62;45.73;;;;;;;3.15;84.24;99176.92;4240807;82;21158;-87
2021/04/19 01:16:39;;;;;;;107.97;50.33;;;;;;;3.20;84.57;99172.70;4244097;82;21921;-88
2021/04/19 01:22:43;;;;;;;101.67;47.53;;;;;;;3.37;84.76;99165.66;4229193;82;21207;-86
2021/04/19 01:28:45;;;;;;;98.65;45.12;;;;;;;3.50;84.96;99157.88;4244705;82;21631;-87
2021/04/19 01:34:47;;;;;;;91.45;46.88;;;;;;;3.65;85.07;99154.64;4259797;82;21170;-87
2021/04/19 01:40:54;;;;;;;95.75;46.55;;;;;;;3.71;84.90;99157.40;4256988;81;21178;-87
2021/04/19 01:46:57;;;;;;;102.80;48.23;;;;;;;3.70;84.66;99151.73;4259553;81;21202;-86
2021/04/19 01:53:01;;;;;;;101.70;48.13;;;;;;;3.66;84.61;99152.16;4248660;81;21173;-86
2021/04/19 01:59:06;;;;;;;104.45;50.45;;;;;;;3.63;84.78;99146.05;4250649;81;21167;-87
2021/04/19 02:05:22;;;;;;;96.47;47.53;;;;;;;3.44;84.54;99157.27;4268974;81;21185;-88
2021/04/19 02:11:50;;;;;;;103.87;51.73;;;;;;;3.36;84.90;99160.80;4271284;81;21994;-86
2021/04/19 02:18:22;;;;;;;115.55;52.80;;;;;;;3.37;85.26;99165.66;4210069;83;21182;-88
2021/04/19 02:24:27;;;;;;;99.60;49.55;;;;;;;3.44;85.79;99166.74;4171419;83;21173;-88
2021/04/19 02:30:37;;;;;;;90.80;41.40;;;;;;;3.55;85.87;99159.05;4167714;84;21169;-87
2021/04/19 02:36:49;;;;;;;99.80;46.77;;;;;;;3.72;85.90;99153.01;4078154;86;21224;-88
2021/04/19 02:42:54;;;;;;;107.03;52.93;;;;;;;3.81;85.31;99141.56;4149412;84;21184;-88
2021/04/19 02:48:57;;;;;;;92.60;42.70;;;;;;;3.70;86.05;99143.06;4158069;84;21169;-87
2021/04/19 02:55:00;;;;;;;87.92;43.85;;;;;;;3.83;86.17;99131.21;4163595;85;21174;-87
2021/04/19 03:01:02;;;;;;;96.42;47.33;;;;;;;3.91;85.57;99133.63;4079601;86;21305;-87
2021/04/19 03:07:08;;;;;;;92.37;46.90;;;;;;;3.98;86.14;99126.56;4040941;86;21793;-88
2021/04/19 03:13:11;;;;;;;90.00;44.00;;;;;;;4.01;86.15;99122.43;4027948;87;38002;-86
2021/04/19 03:19:16;;;;;;;86.35;44.33;;;;;;;4.02;85.69;99134.84;4010792;87;21175;-87
2021/04/19 03:25:20;;;;;;;90.60;47.00;;;;;;;4.04;86.13;99131.25;4016942;88;21233;-87
2021/04/19 03:31:33;;;;;;;88.72;46.18;;;;;;;4.16;86.25;99128.06;4126444;84;21619;-88
2021/04/19 03:37:40;;;;;;;87.53;45.23;;;;;;;4.20;86.25;99126.81;4121097;85;21584;-89
2021/04/19 03:43:50;;;;;;;62.17;33.67;;;;;;;4.25;86.22;99122.56;4068150;86;21187;-89
2021/04/19 03:49:58;;;;;;;83.78;43.42;;;;;;;4.30;86.17;99119.66;4116022;85;21177;-88
2021/04/19 03:56:01;;;;;;;84.58;45.25;;;;;;;4.35;86.00;99119.47;4214629;83;21293;-88
2021/04/19 04:02:07;;;;;;;88.80;48.58;;;;;;;4.19;86.42;99115.20;4208978;83;21154;-88
2021/04/19 04:15:18;;;;;;;91.63;50.00;;;;;;;4.19;86.63;99119.83;4120817;85;21145;-87
2021/04/19 04:21:21;;;;;;;94.67;50.20;;;;;;;4.29;87.04;99105.89;4068046;86;21211;-87
2021/04/19 04:27:28;;;;;;;84.45;46.53;;;;;;;4.43;87.15;99110.48;4081940;86;21341;-87
2021/04/19 04:33:30;;;;;;;79.85;43.02;;;;;;;4.54;87.10;99102.95;4056469;86;21234;-87
2021/04/19 04:39:45;;;;;;;90.47;47.67;;;;;;;4.73;87.07;99101.90;4595687;76;22906;-88
2021/04/19 04:45:50;;;;;;;92.95;50.00;;;;;;;4.76;86.93;99096.39;4500126;78;21129;-87
2021/04/19 04:51:57;;;;;;;90.90;49.03;;;;;;;4.76;87.45;99099.10;4495771;78;21164;-88
2021/04/19 04:58:00;;;;;;;91.37;48.13;;;;;;;4.85;87.38;99106.00;4491780;78;21262;-88
2021/04/19 05:04:03;;;;;;;95.50;51.10;;;;;;;4.90;87.32;99109.09;4486481;78;21108;-88
2021/04/19 05:10:06;;;;;;;94.58;50.90;;;;;;;5.00;87.41;99110.56;4493172;78;21597;-88
2021/04/19 05:16:08;;;;;;;98.12;49.48;;;;;;;5.04;87.28;99113.66;4489582;78;21140;-87
2021/04/19 05:22:09;;;;;;;85.35;46.05;;;;;;;5.09;87.44;99120.20;4490697;78;21616;-88
2021/04/19 05:28:18;;;;;;;87.57;46.80;;;;;;;5.19;87.21;99115.70;4491458;78;21617;-87
2021/04/19 05:34:19;;;;;;;87.40;47.38;;;;;;;5.28;87.18;99108.84;4495926;79;21271;-87
2021/04/19 05:40:23;;;;;;;76.07;43.58;;;;;;;5.33;87.25;99101.81;4494774;78;21128;-87
2021/04/19 05:46:24;;;;;;;78.12;43.90;;;;;;;5.40;87.27;99112.36;4491517;78;21185;-86
2021/04/19 05:52:26;;;;;;;85.60;48.20;;;;;;;5.47;87.45;99105.79;4495304;79;21561;-88
2021/04/19 05:58:48;;;;;;;83.80;46.42;;;;;;;5.59;87.56;99109.09;4487217;79;21156;-87
2021/04/19 06:05:09;;;;;;;87.45;45.78;;;;;;;5.59;87.34;99113.94;4378920;80;21625;-88
2021/04/19 06:11:19;;;;;;;81.30;45.65;;;;;;;5.59;87.36;99124.02;4385414;81;21145;-87
2021/04/19 06:17:30;;;;;;;83.70;45.08;;;;;;;5.62;87.52;99120.62;4387340;81;21157;-87
2021/04/19 06:23:34;;;;;;;79.42;44.75;;;;;;;5.61;87.59;99115.75;4400836;80;21149;-87
2021/04/19 06:29:35;;;;;;;89.42;49.03;;;;;;;5.60;87.71;99117.45;4357265;80;21555;-87
2021/04/19 06:42:46;;;;;;;85.53;47.65;;;;;;;5.72;88.23;99124.23;4000030;86;21351;-86
2021/04/19 06:48:50;;;;;;;76.05;43.92;;;;;;;5.84;88.28;99120.98;4024225;86;21229;-86
2021/04/19 06:54:54;;;;;;;80.07;45.50;;;;;;;5.93;87.85;99124.95;4421218;78;21611;-84
2021/04/19 07:00:57;;;;;;;81.75;47.20;;;;;;;5.89;88.11;99129.47;4430015;79;21107;-84
2021/04/19 07:06:59;;;;;;;94.70;49.95;;;;;;;5.87;88.40;99133.88;4429336;79;21128;-84
2021/04/19 07:13:08;;;;;;;87.97;47.10;;;;;;;6.03;88.71;99123.11;4441420;79;21158;-84
2021/04/19 07:19:10;;;;;;;84.50;47.60;;;;;;;6.14;88.62;99103.84;4430318;79;21614;-85
2021/04/19 07:25:12;;;;;;;89.35;52.20;;;;;;;6.25;88.69;99093.52;4430910;79;21146;-84
2021/04/19 07:31:14;;;;;;;82.92;49.55;;;;;;;6.41;88.92;99101.75;4432245;79;21551;-84
2021/04/19 07:37:15;;;;;;;88.40;51.08;;;;;;;6.42;88.50;99103.35;4268013;79;33577;-84
2021/04/19 07:43:21;;;;;;;92.02;52.65;;;;;;;6.55;89.07;99102.16;4148120;85;21177;-85
2021/04/19 07:49:22;;;;;;;101.33;60.67;;;;;;;6.67;88.97;99098.61;4160113;83;21295;-85
2021/04/19 07:55:31;;;;;;;99.40;58.15;;;;;;;6.77;88.67;99089.37;4152820;85;21197;-84
2021/04/19 08:01:38;;;;;;;104.67;57.53;;;;;;;6.87;88.97;99088.08;4159044;85;21170;-85
2021/04/19 08:07:39;;;;;;;100.47;55.67;;;;;;;7.13;89.00;99082.93;4138591;85;21358;-85
2021/04/19 08:13:55;;;;;;;88.07;51.75;;;;;;;7.27;88.73;99105.08;4148860;85;21133;-84
2021/04/19 08:19:58;;;;;;;92.30;52.03;;;;;;;7.35;88.60;99108.20;4156294;84;21152;-86
2021/04/19 08:25:59;;;;;;;89.10;48.02;;;;;;;7.42;88.90;99097.50;4135669;85;21270;-85
2021/04/19 08:32:01;;;;;;;88.55;51.68;;;;;;;7.64;89.10;99100.97;4134545;85;21166;-84
2021/04/19 08:38:06;;;;;;;93.20;52.85;;;;;;;7.87;88.89;99099.98;4121093;84;21323;-85
2021/04/19 08:44:07;;;;;;;80.38;47.38;;;;;;;7.87;88.53;99103.27;4189602;85;21172;-85
2021/04/19 08:50:11;;;;;;;89.03;52.03;;;;;;;7.91;88.67;99104.92;4189626;85;21171;-85
2021/04/19 08:56:13;;;;;;;75.87;45.08;;;;;;;7.88;88.62;99109.73;4189163;85;21636;-85
2021/04/19 09:02:17;;;;;;;67.60;39.88;;;;;;;7.83;88.84;99114.64;4193129;84;21628;-84
2021/04/19 09:08:20;;;;;;;64.10;37.98;;;;;;;8.06;89.34;99103.89;4190891;84;21594;-85
2021/04/19 09:14:35;;;;;;;67.10;40.15;;;;;;;8.51;89.65;99095.94;4185800;84;21165;-86
2021/04/19 09:20:52;;;;;;;61.33;36.08;;;;;;;8.63;88.99;99091.72;4189724;84;21175;-85
2021/04/19 09:26:58;;;;;;;57.25;35.58;;;;;;;8.51;89.20;99085.83;4194696;84;21169;-86
2021/04/19 09:33:08;;;;;;;64.85;38.45;;;;;;;8.66;88.91;99083.58;4235429;84;21173;-85
2021/04/19 09:39:10;;;;;;;59.88;36.63;;;;;;;8.54;88.98;99085.10;4194417;83;21192;-85
2021/04/19 09:45:11;;;;;;;67.80;39.95;;;;;;;8.71;89.33;99072.38;4139568;85;21191;-86
2021/04/19 09:51:18;;;;;;;57.35;34.50;;;;;;;8.69;89.60;99067.85;4107994;87;21752;-86
2021/04/19 09:57:20;;;;;;;;;;;;;;;8.78;89.55;99067.08;4174206;85;21327;-84
2021/04/19 10:03:22;;;;;;;61.68;36.60;;;;;;;8.85;88.92;99064.47;4184780;85;20554;-86
2021/04/19 10:09:29;;;;;;;59.15;34.15;;;;;;;8.81;88.84;99069.64;4184774;85;21134;-85
2021/04/19 10:15:31;;;;;;;60.23;34.73;;;;;;;8.80;88.77;99065.34;4184447;84;21225;-86
2021/04/19 10:21:33;;;;;;;62.50;37.78;;;;;;;8.85;89.03;99054.11;4184861;85;21177;-86
2021/04/19 10:27:35;;;;;;;68.47;38.25;;;;;;;8.92;89.03;99053.69;4150561;84;21178;-85
2021/04/19 10:33:39;;;;;;;59.67;36.38;;;;;;;8.94;88.67;99056.83;4105358;86;21198;-86
2021/04/19 10:39:40;;;;;;;70.57;41.20;;;;;;;8.92;88.75;99056.98;4108510;85;21162;-87
2021/04/19 10:45:42;;;;;;;80.00;45.17;;;;;;;8.87;88.40;99060.01;4182929;85;21214;-86
2021/04/19 10:51:56;;;;;;;80.55;44.83;;;;;;;8.74;88.17;99060.75;4196157;85;21607;-85
2021/04/19 10:57:57;;;;;;;73.42;43.80;;;;;;;8.63;88.45;99057.61;4196323;85;21185;-85
2021/04/19 11:04:01;;;;;;;80.32;45.52;;;;;;;8.60;88.51;99060.47;4196181;85;21173;-88
2021/04/19 11:10:28;;;;;;;81.90;47.30;;;;;;;8.57;88.52;99059.83;4196482;84;21186;-86
2021/04/19 11:16:30;;;;;;;86.78;46.90;;;;;;;8.53;88.62;99054.09;4197760;85;21209;-88
2021/04/19 11:22:35;;;;;;;74.97;44.63;;;;;;;8.58;88.89;99047.75;4196832;85;21171;-87
2021/04/19 11:28:44;;;;;;;81.70;48.10;;;;;;;8.68;88.78;99041.72;4197386;85;21141;-88
2021/04/19 11:34:46;;;;;;;79.50;45.78;;;;;;;8.76;89.11;99033.09;4196799;85;21573;-88
2021/04/19 11:40:50;;;;;;;89.77;51.40;;;;;;;8.85;89.04;99029.55;4198458;84;21212;-87
2021/04/19 11:46:52;;;;;;;86.67;51.28;;;;;;;8.89;88.91;99033.14;4203466;85;21200;-87
2021/04/19 11:52:53;;;;;;;92.08;52.50;;;;;;;8.95;88.90;99030.33;4203874;85;21166;-86
2021/04/19 11:58:55;;;;;;;94.62;51.33;;;;;;;9.08;88.98;99024.31;4203658;84;21162;-87
2021/04/19 12:04:56;;;;;;;82.47;46.98;;;;;;;9.39;89.31;99021.35;4166457;85;21142;-88
2021/04/19 12:10:59;;;;;;;82.25;49.03;;;;;;;9.71;88.75;99031.98;4130907;86;21170;-87
2021/04/19 12:17:00;;;;;;;83.47;48.33;;;;;;;10.14;89.12;99014.46;4130302;86;22093;-88
2021/04/19 12:23:02;;;;;;;74.45;47.67;;;;;;;10.67;88.27;99009.61;4130885;86;21145;-89
2021/04/19 12:29:05;;;;;;;74.17;44.88;;;;;;;10.73;87.64;99017.69;4131744;86;21169;-87
2021/04/19 12:35:08;;;;;;;78.62;46.98;;;;;;;10.72;87.46;99000.49;4130394;86;21748;-88
2021/04/19 12:41:09;;;;;;;67.12;40.50;;;;;;;10.90;87.71;98993.80;4118311;85;21198;-88
2021/04/19 12:47:11;;;;;;;74.27;43.87;;;;;;;11.15;86.26;98986.59;4095955;87;21146;-89
2021/04/19 12:53:13;;;;;;;68.90;40.50;;;;;;;11.21;85.19;98987.05;4095383;86;21192;-87
2021/04/19 12:59:33;;;;;;;72.75;42.62;;;;;;;11.22;86.15;98981.77;4096393;86;21170;-89
2021/04/19 13:05:35;;;;;;;66.72;40.08;;;;;;;11.02;85.38;98966.16;4096327;86;21166;-88
2021/04/19 13:11:37;;;;;;;64.17;38.70;;;;;;;11.23;85.43;98959.47;4095564;87;21161;-88
2021/04/19 13:17:39;;;;;;;61.10;37.95;;;;;;;11.54;84.58;98958.14;4096434;87;21222;-88
2021/04/19 13:23:41;;;;;;;62.27;37.28;;;;;;;12.30;84.92;98948.17;4095759;86;21643;-88
2021/04/19 13:29:42;;;;;;;59.85;36.38;;;;;;;12.32;80.54;98952.66;4095782;86;21611;-88
2021/04/19 13:35:44;;;;;;;57.08;36.25;;;;;;;12.55;82.46;98957.84;4096088;86;21197;-88
2021/04/19 13:41:46;;;;;;;64.75;38.08;;;;;;;12.61;76.46;98954.91;4096432;85;21197;-90
2021/04/19 13:47:49;;;;;;;52.08;33.63;;;;;;;12.42;80.40;98944.27;4096064;86;21178;-89
2021/04/19 13:53:50;;;;;;;51.75;33.23;;;;;;;12.89;81.06;98931.61;4096006;87;21174;-89
2021/04/19 13:59:52;;;;;;;49.63;32.63;;;;;;;13.02;79.46;98932.03;4095694;87;21343;-89
2021/04/19 14:05:54;;;;;;;50.45;32.55;;;;;;;13.60;79.79;98926.88;4096558;87;21170;-88
2021/04/19 14:11:56;;;;;;;49.13;32.28;;;;;;;13.92;78.88;98917.97;4095812;86;21166;-87
2021/04/19 14:17:58;;;;;;;50.78;31.23;;;;;;;13.63;78.20;98925.51;4095718;86;21186;-88
2021/04/19 14:24:00;;;;;;;49.93;31.25;;;;;;;13.23;76.07;98922.43;4096390;86;21186;-89
2021/04/19 14:30:04;;;;;;;51.70;32.80;;;;;;;12.34;76.89;98917.39;4095629;86;21452;-88
2021/04/19 14:36:06;;;;;;;52.10;30.12;;;;;;;11.76;77.51;98918.14;4095671;86;21158;-87
2021/04/19 14:42:09;;;;;;;46.55;29.90;;;;;;;11.65;77.90;98911.80;4100317;85;21621;-89
2021/04/19 14:48:11;;;;;;;49.88;31.50;;;;;;;11.45;77.19;98908.36;4107742;87;21185;-87
2021/04/19 14:54:13;;;;;;;50.20;30.92;;;;;;;11.30;78.24;98904.73;4107924;87;21165;-89
2021/04/19 15:00:16;;;;;;;45.17;29.57;;;;;;;11.30;77.99;98903.94;4108156;87;21173;-89
2021/04/19 15:06:17;;;;;;;44.90;30.12;;;;;;;11.36;78.39;98910.63;4107252;86;21442;-88
2021/04/19 15:12:19;;;;;;;53.50;34.15;;;;;;;11.40;78.76;98895.77;4107291;87;21339;-87
2021/04/19 15:18:20;;;;;;;53.25;32.33;;;;;;;11.39;78.66;98896.16;4107661;87;21221;-88
2021/04/19 15:24:23;;;;;;;56.05;33.85;;;;;;;11.33;78.52;98898.48;4107023;87;21142;-89
2021/04/19 15:30:25;;;;;;;62.48;35.73;;;;;;;11.37;79.05;98894.40;4107476;86;21165;-88
2021/04/19 15:36:26;;;;;;;61.23;37.28;;;;;;;11.33;78.69;98898.48;4108045;87;21567;-88
2021/04/19 15:42:28;;;;;;;59.40;35.00;;;;;;;11.28;78.76;98898.83;4102609;85;21630;-90
2021/04/19 15:48:29;;;;;;;60.00;34.25;;;;;;;11.22;78.88;98897.63;4095889;87;21170;-87
2021/04/19 15:54:31;;;;;;;61.25;35.30;;;;;;;11.28;79.23;98887.08;4095884;86;21182;-88
2021/04/19 16:00:32;;;;;;;63.28;39.55;;;;;;;11.27;78.75;98896.47;4096023;86;21194;-89
2021/04/19 16:06:34;;;;;;;64.67;38.65;;;;;;;11.14;79.01;98891.89;4095186;86;21631;-89
2021/04/19 16:12:35;;;;;;;71.35;41.30;;;;;;;11.05;79.08;98896.34;4095495;86;21639;-87
2021/04/19 16:18:36;;;;;;;68.33;42.03;;;;;;;10.74;78.79;98912.50;4095443;86;21194;-87
2021/04/19 16:24:38;;;;;;;69.45;43.20;;;;;;;10.55;79.42;98909.40;4111197;85;21184;-88
2021/04/19 16:30:59;;;;;;;75.28;44.30;;;;;;;10.11;80.78;98915.94;4133202;85;21170;-89
2021/04/19 16:37:00;;;;;;;77.42;45.17;;;;;;;9.98;80.96;98918.67;4123473;85;21311;-88
2021/04/19 16:43:02;;;;;;;80.17;46.55;;;;;;;9.88;81.09;98920.72;4157172;84;21166;-87
2021/04/19 16:49:05;;;;;;;86.35;52.27;;;;;;;9.86;81.72;98918.92;4121101;85;21181;-88
2021/04/19 16:55:10;;;;;;;78.97;46.68;;;;;;;9.64;81.75;98918.44;4156233;84;21604;-87
2021/04/19 17:01:12;;;;;;;79.17;44.80;;;;;;;9.63;82.40;98918.23;4107201;85;21171;-89
2021/04/19 17:07:21;;;;;;;81.00;50.12;;;;;;;9.52;82.69;98916.73;4120975;85;21151;-87
2021/04/19 17:13:27;;;;;;;84.37;49.98;;;;;;;9.43;83.26;98919.72;4135824;84;21666;-88
2021/04/19 17:19:29;;;;;;;83.05;48.68;;;;;;;9.51;83.35;98915.94;4122654;84;21812;-88
2021/04/19 17:25:31;;;;;;;92.15;50.58;;;;;;;9.48;83.57;98913.15;4122122;85;21190;-88
2021/04/19 17:31:32;;;;;;;83.62;50.12;;;;;;;9.53;83.61;98916.37;4124484;84;21801;-88
2021/04/19 17:37:34;;;;;;;88.92;53.52;;;;;;;9.33;83.80;98911.38;4122740;85;21174;-87
2021/04/19 17:43:36;;;;;;;97.90;55.98;;;;;;;9.31;84.17;98916.42;4143401;83;21209;-88
2021/04/19 17:49:38;;;;;;;95.15;53.87;;;;;;;9.22;84.44;98918.63;4149107;83;21193;-86
2021/04/19 17:55:40;;;;;;;98.75;55.88;;;;;;;9.14;84.43;98925.94;4147637;83;21222;-88
2021/04/19 18:01:41;;;;;;;96.32;54.42;;;;;;;9.16;84.58;98930.43;4149610;83;21714;-88
2021/04/19 18:07:43;;;;;;;89.05;52.10;;;;;;;9.07;84.87;98937.30;4157171;83;21217;-88
2021/04/19 18:13:44;;;;;;;97.42;55.23;;;;;;;9.06;84.74;98942.56;4133797;83;21201;-87
2021/04/19 18:19:46;;;;;;;99.55;60.88;;;;;;;8.94;84.92;98947.63;4157753;83;21209;-88
2021/04/19 18:25:48;;;;;;;103.45;58.95;;;;;;;8.78;85.27;98949.71;4155499;83;21643;-87
2021/04/19 18:31:52;;;;;;;134.32;74.80;;;;;;;8.72;85.75;98964.02;4150644;83;21176;-89
2021/04/19 18:37:54;;;;;;;140.15;87.30;;;;;;;8.64;85.69;98959.58;4142591;85;21188;-89
2021/04/19 18:43:57;;;;;;;115.40;68.02;;;;;;;8.53;86.60;98953.14;4140141;84;21339;-88
2021/04/19 18:49:59;;;;;;;116.85;69.10;;;;;;;8.61;86.58;98965.20;4136767;84;21637;-87
2021/04/19 18:56:01;;;;;;;121.75;72.75;;;;;;;8.63;87.59;98948.47;4133739;84;21150;-88
2021/04/19 19:02:03;;;;;;;115.20;70.32;;;;;;;8.55;87.34;98953.58;4131558;84;21190;-88
2021/04/19 19:08:07;;;;;;;95.97;58.40;;;;;;;8.62;87.11;98938.11;4020697;85;9999671;-88
2021/04/19 19:14:11;;;;;;;104.87;58.52;;;;;;;8.66;87.44;98921.81;4127288;84;21345;-87
2021/04/19 19:20:13;;;;;;;93.92;55.50;;;;;;;8.61;87.10;98919.37;4130064;85;21212;-88
2021/04/19 19:26:16;;;;;;;91.37;52.17;;;;;;;8.47;87.45;98925.35;4145363;84;21205;-88
2021/04/19 19:32:17;;;;;;;89.87;52.25;;;;;;;8.47;87.74;98908.22;4138552;85;21758;-87
2021/04/19 19:38:19;;;;;;;96.28;55.05;;;;;;;8.48;87.75;98909.78;4124829;85;21165;-86
2021/04/19 19:44:20;;;;;;;82.08;49.85;;;;;;;8.42;87.49;98907.95;4147160;84;21666;-86
2021/04/19 19:50:27;;;;;;;82.17;48.15;;;;;;;8.31;87.74;98912.98;4140743;83;21205;-86
2021/04/19 19:56:28;;;;;;;82.23;48.97;;;;;;;8.39;88.14;98918.78;4157555;83;21150;-87
2021/04/19 20:02:30;;;;;;;92.35;53.08;;;;;;;8.48;88.17;98905.69;4152563;83;21366;-86
2021/04/19 20:08:31;;;;;;;78.07;47.65;;;;;;;8.33;87.75;98910.69;4160989;83;21220;-86
2021/04/19 20:14:34;;;;;;;86.02;50.48;;;;;;;8.17;87.82;98909.95;4160798;84;21291;-86
2021/04/19 20:20:36;;;;;;;105.17;60.08;;;;;;;8.11;88.29;98914.13;4156171;84;21122;-86
2021/04/19 20:26:38;;;;;;;104.83;60.35;;;;;;;8.16;88.36;98909.16;4159936;84;21220;-86
2021/04/19 20:32:39;;;;;;;110.17;62.33;;;;;;;8.04;88.07;98898.42;4160969;83;21193;-86
2021/04/19 20:38:40;;;;;;;89.35;53.50;;;;;;;7.91;88.66;98896.42;4144983;84;21320;-86
2021/04/19 20:44:42;;;;;;;104.75;61.25;;;;;;;7.83;88.13;98892.53;4178765;83;21701;-86
2021/04/19 20:50:43;;;;;;;106.15;60.95;;;;;;;7.85;88.54;98891.05;4186772;83;21202;-86
2021/04/19 20:56:44;;;;;;;91.60;54.75;;;;;;;7.76;88.68;98886.95;4211838;83;21196;-86
2021/04/19 21:02:46;;;;;;;85.80;51.40;;;;;;;7.66;88.18;98887.52;4213107;83;21790;-86
2021/04/19 21:08:47;;;;;;;97.42;60.20;;;;;;;7.47;88.29;98888.29;4205141;83;21143;-86
2021/04/19 21:14:49;;;;;;;94.50;56.65;;;;;;;7.40;88.64;98887.36;4204113;83;21666;-85
2021/04/19 21:20:50;;;;;;;99.55;57.27;;;;;;;7.21;88.19;98884.59;4206095;83;21175;-86
2021/04/19 21:26:52;;;;;;;73.25;45.98;;;;;;;6.90;88.32;98894.17;4209157;83;21160;-86
2021/04/19 21:32:53;;;;;;;84.15;49.75;;;;;;;6.66;87.65;98894.35;4199982;83;21288;-85
2021/04/19 21:38:56;;;;;;;128.27;74.35;;;;;;;6.35;87.82;98896.50;4197872;83;21669;-86
2021/04/19 21:44:57;;;;;;;65.83;38.38;;;;;;;6.15;88.38;98887.42;4178815;82;21156;-86
2021/04/19 21:50:59;;;;;;;108.70;58.80;;;;;;;6.10;88.70;98893.14;4158746;85;21180;-86
2021/04/19 21:57:01;;;;;;;112.72;61.92;;;;;;;6.10;88.70;98884.98;4154492;85;21483;-86
2021/04/19 22:03:08;;;;;;;103.47;55.63;;;;;;;5.96;88.32;98888.67;4157407;84;21800;-85
2021/04/19 22:09:10;;;;;;;96.75;52.60;;;;;;;5.95;88.75;98890.38;4168304;84;21196;-86
2021/04/19 22:15:12;;;;;;;88.33;48.28;;;;;;;5.89;88.77;98886.31;4184591;83;21202;-85
2021/04/19 22:21:14;;;;;;;93.03;47.58;;;;;;;5.67;88.16;98889.56;4178081;83;21302;-86
2021/04/19 22:27:15;;;;;;;85.97;46.55;;;;;;;5.59;88.81;98885.06;4170888;84;21137;-86
2021/04/19 22:33:17;;;;;;;89.50;49.13;;;;;;;5.57;89.04;98888.68;4184649;84;21722;-86
2021/04/19 22:39:18;;;;;;;92.78;46.73;;;;;;;5.69;89.30;98892.14;4177977;83;21185;-86
2021/04/19 22:45:20;;;;;;;87.57;43.90;;;;;;;5.65;88.99;98889.91;4167069;84;21351;-85
2021/04/19 22:51:22;;;;;;;77.80;44.35;;;;;;;5.62;89.20;98893.28;4157744;83;21198;-86
2021/04/19 22:57:23;;;;;;;87.12;48.65;;;;;;;5.56;89.32;98886.52;4142645;85;21635;-85
2021/04/19 23:03:25;;;;;;;94.65;48.05;;;;;;;5.60;89.53;98886.07;4150737;83;21385;-86
2021/04/19 23:09:26;;;;;;;84.32;45.60;;;;;;;5.61;89.53;98884.12;4158061;85;21185;-86
2021/04/19 23:15:28;;;;;;;77.15;43.48;;;;;;;5.59;89.62;98879.63;4164203;85;21182;-85
2021/04/19 23:21:30;;;;;;;84.62;44.65;;;;;;;5.53;89.43;98874.99;4149816;83;21303;-86
2021/04/19 23:27:32;;;;;;;80.75;44.50;;;;;;;5.54;89.76;98871.16;4157317;85;21203;-86
2021/04/19 23:33:34;;;;;;;83.07;43.87;;;;;;;5.65;90.21;98874.97;4148626;83;21303;-86
2021/04/19 23:39:38;;;;;;;76.02;41.50;;;;;;;5.61;89.73;98863.77;4150033;83;21395;-86
2021/04/19 23:45:39;;;;;;;78.85;42.83;;;;;;;5.57;89.98;98860.97;4173144;84;21192;-86
2021/04/19 23:51:40;;;;;;;86.90;43.40;;;;;;;5.59;90.07;98858.67;4189557;83;21323;-86
2021/04/19 23:57:42;;;;;;;86.72;41.58;;;;;;;5.66;90.27;98856.17;4188423;83;21224;-85
